createdAt,value
2022-10-15T00:00:53.830Z,6.47
2022-10-15T00:03:56.835Z,7.43
2022-10-15T00:06:59.861Z,5.73
2022-10-15T00:10:02.822Z,5.80
2022-10-15T00:13:06.506Z,8.33
2022-10-15T00:16:14.225Z,5.93
2022-10-15T00:19:17.201Z,7.93
2022-10-15T00:22:20.409Z,7.37
2022-10-15T00:25:23.664Z,8.93
2022-10-15T00:28:30.595Z,8.30
2022-10-15T00:31:37.780Z,7.73
2022-10-15T00:34:40.743Z,8.53
2022-10-15T00:37:44.734Z,9.73
2022-10-15T00:40:47.703Z,8.63
2022-10-15T00:43:52.292Z,8.80
2022-10-15T00:46:59.967Z,7.80
2022-10-15T00:50:06.878Z,13.10
2022-10-15T00:53:10.977Z,11.30
2022-10-15T00:56:14.709Z,9.83
2022-10-15T00:59:19.883Z,9.93
2022-10-15T01:02:24.610Z,11.87
2022-10-15T01:05:28.466Z,10.00
2022-10-15T01:08:31.670Z,11.00
2022-10-15T01:11:42.019Z,10.97
2022-10-15T01:14:52.506Z,11.17
2022-10-15T01:18:00.550Z,10.63
2022-10-15T01:21:14.131Z,11.50
2022-10-15T01:24:46.706Z,12.07
2022-10-15T01:27:55.867Z,12.37
2022-10-15T01:31:04.126Z,13.83
2022-10-15T01:37:27.937Z,12.57
2022-10-15T01:40:35.861Z,14.20
2022-10-15T01:43:44.803Z,13.23
2022-10-15T01:46:51.773Z,12.47
2022-10-15T01:49:56.046Z,14.10
2022-10-15T01:53:01.466Z,14.40
2022-10-15T01:56:09.440Z,14.00
2022-10-15T01:59:12.494Z,13.57
2022-10-15T02:02:17.087Z,15.53
2022-10-15T02:05:26.781Z,14.57
2022-10-15T02:08:36.334Z,15.77
2022-10-15T02:11:50.259Z,13.33
2022-10-15T02:14:59.861Z,15.57
2022-10-15T02:18:07.889Z,14.30
2022-10-15T02:21:15.529Z,15.73
2022-10-15T02:24:23.538Z,15.57
2022-10-15T02:27:29.159Z,16.00
2022-10-15T02:30:33.611Z,14.33
2022-10-15T02:33:39.259Z,15.80
2022-10-15T02:36:43.332Z,14.50
2022-10-15T02:39:46.337Z,15.03
2022-10-15T02:42:50.883Z,15.00
2022-10-15T02:45:53.853Z,14.47
2022-10-15T02:48:58.182Z,15.03
2022-10-15T02:52:01.401Z,18.37
2022-10-15T02:55:04.685Z,16.53
2022-10-15T02:58:07.641Z,16.67
2022-10-15T03:01:10.675Z,16.43
2022-10-15T03:04:15.086Z,16.27
2022-10-15T03:07:18.082Z,13.23
2022-10-15T03:10:21.050Z,12.67
2022-10-15T03:13:24.047Z,14.47
2022-10-15T03:16:27.079Z,14.07
2022-10-15T03:19:31.393Z,17.97
2022-10-15T03:22:34.377Z,11.80
2022-10-15T03:25:37.337Z,13.03
2022-10-15T03:28:40.347Z,14.10
2022-10-15T03:31:43.367Z,14.20
2022-10-15T03:34:47.669Z,12.93
2022-10-15T03:37:50.675Z,12.00
2022-10-15T03:40:53.643Z,10.77
2022-10-15T03:44:01.088Z,11.50
2022-10-15T03:47:04.152Z,15.30
2022-10-15T03:50:09.314Z,11.73
2022-10-15T03:53:12.284Z,12.93
2022-10-15T03:56:15.349Z,13.83
2022-10-15T03:59:18.337Z,13.13
2022-10-15T04:02:21.728Z,14.37
2022-10-15T04:05:26.443Z,12.97
2022-10-15T04:08:29.424Z,14.90
2022-10-15T04:11:32.378Z,13.90
2022-10-15T04:14:35.385Z,13.17
2022-10-15T04:17:38.350Z,14.63
2022-10-15T04:20:43.212Z,13.77
2022-10-15T04:23:46.188Z,14.80
2022-10-15T04:26:49.451Z,15.10
2022-10-15T04:29:52.409Z,14.77
2022-10-15T04:32:55.659Z,17.77
2022-10-15T04:36:05.812Z,17.57
2022-10-15T04:39:12.163Z,14.33
2022-10-15T04:42:17.466Z,17.67
2022-10-15T04:45:20.544Z,14.70
2022-10-15T04:48:23.601Z,20.30
2022-10-15T04:51:28.247Z,17.80
2022-10-15T04:54:31.215Z,21.33
2022-10-15T04:57:34.202Z,19.83
2022-10-15T05:00:37.135Z,20.13
2022-10-15T05:03:44.154Z,19.93
2022-10-15T05:06:49.534Z,21.60
2022-10-15T05:09:52.519Z,20.10
2022-10-15T05:12:56.816Z,18.43
2022-10-15T05:16:10.110Z,20.33
2022-10-15T05:19:13.115Z,26.90
2022-10-15T05:22:17.767Z,19.07
2022-10-15T05:25:20.780Z,25.13
2022-10-15T05:28:23.848Z,22.67
2022-10-15T05:31:28.841Z,21.03
2022-10-15T05:34:31.966Z,21.07
2022-10-15T05:37:36.282Z,20.77
2022-10-15T05:40:39.450Z,23.43
2022-10-15T05:43:43.009Z,21.03
2022-10-15T05:46:45.958Z,21.60
2022-10-15T05:49:48.940Z,25.17
2022-10-15T05:52:55.558Z,24.50
2022-10-15T05:55:59.617Z,23.40
2022-10-15T05:59:03.211Z,23.60
2022-10-15T06:02:06.231Z,26.77
2022-10-15T06:05:09.506Z,24.63
2022-10-15T06:08:13.837Z,25.27
2022-10-15T06:11:16.913Z,26.27
2022-10-15T06:14:20.402Z,23.00
2022-10-15T06:17:23.516Z,23.53
2022-10-15T06:20:26.689Z,26.17
2022-10-15T06:23:31.005Z,25.97
2022-10-15T06:26:33.968Z,27.40
2022-10-15T06:29:36.940Z,23.47
2022-10-15T06:32:39.911Z,28.87
2022-10-15T06:35:43.123Z,27.00
2022-10-15T06:38:48.581Z,24.27
2022-10-15T06:41:51.535Z,23.97
2022-10-15T06:44:54.499Z,22.67
2022-10-15T06:47:57.452Z,25.20
2022-10-15T06:51:01.079Z,26.67
2022-10-15T06:54:05.675Z,25.63
2022-10-15T06:57:08.845Z,20.30
2022-10-15T07:00:13.372Z,23.93
2022-10-15T07:03:16.347Z,21.63
2022-10-15T07:06:19.459Z,24.13
2022-10-15T07:09:23.872Z,24.07
2022-10-15T07:12:27.060Z,22.50
2022-10-15T07:15:30.539Z,24.57
2022-10-15T07:18:33.732Z,25.63
2022-10-15T07:21:36.838Z,23.33
2022-10-15T07:24:41.183Z,23.47
2022-10-15T07:27:44.151Z,20.67
2022-10-15T07:30:47.138Z,24.53
2022-10-15T07:33:50.137Z,27.03
2022-10-15T07:36:53.111Z,22.40
2022-10-15T07:39:57.430Z,23.40
2022-10-15T07:43:01.012Z,23.10
2022-10-15T07:46:05.146Z,22.53
2022-10-15T07:49:09.253Z,22.13
2022-10-15T07:52:12.363Z,21.13
2022-10-15T07:55:16.935Z,21.73
2022-10-15T07:58:20.403Z,22.50
2022-10-15T08:01:23.938Z,22.40
2022-10-15T08:04:26.886Z,24.53
2022-10-15T08:07:29.829Z,22.70
2022-10-15T08:10:34.269Z,22.13
2022-10-15T08:13:38.937Z,21.57
2022-10-15T08:16:41.885Z,21.30
2022-10-15T08:19:44.928Z,22.30
2022-10-15T08:22:47.909Z,20.27
2022-10-15T08:25:52.229Z,20.80
2022-10-15T08:28:55.305Z,18.37
2022-10-15T08:31:58.324Z,21.23
2022-10-15T08:35:01.325Z,16.23
2022-10-15T08:38:04.350Z,17.47
2022-10-15T08:41:23.406Z,19.60
2022-10-15T08:44:29.093Z,18.00
2022-10-15T08:47:37.093Z,14.00
2022-10-15T08:50:43.197Z,18.03
2022-10-15T08:53:50.867Z,16.67
2022-10-15T08:57:09.094Z,18.10
2022-10-15T09:00:17.980Z,17.47
2022-10-15T09:03:32.909Z,15.50
2022-10-15T09:06:38.607Z,15.97
2022-10-15T09:09:47.533Z,17.07
2022-10-15T09:12:59.342Z,16.07
2022-10-15T09:16:07.344Z,16.93
2022-10-15T09:19:16.044Z,19.77
2022-10-15T09:22:24.103Z,16.87
2022-10-15T09:25:34.458Z,20.00
2022-10-15T09:28:43.903Z,19.43
2022-10-15T09:31:55.375Z,17.70
2022-10-15T09:35:04.668Z,17.77
2022-10-15T09:38:22.593Z,13.07
2022-10-15T09:41:35.227Z,18.20
2022-10-15T09:44:43.340Z,14.37
2022-10-15T09:47:46.648Z,12.90
2022-10-15T09:50:56.683Z,16.67
2022-10-15T09:54:06.941Z,16.03
2022-10-15T09:57:12.466Z,13.37
2022-10-15T10:00:16.812Z,15.20
2022-10-15T10:03:20.350Z,10.37
2022-10-15T10:06:25.142Z,11.77
2022-10-15T10:09:32.583Z,13.27
2022-10-15T10:12:37.246Z,12.53
2022-10-15T10:15:44.455Z,12.30
2022-10-15T10:19:03.431Z,10.50
2022-10-15T10:22:16.516Z,11.40
2022-10-15T10:25:42.409Z,11.30
2022-10-15T10:28:53.739Z,13.73
2022-10-15T10:32:01.614Z,12.53
2022-10-15T10:35:06.222Z,10.10
2022-10-15T10:38:20.738Z,9.37
2022-10-15T10:41:23.717Z,10.70
2022-10-15T10:44:32.089Z,9.83
2022-10-15T10:47:39.480Z,8.27
2022-10-15T10:50:43.780Z,10.47
2022-10-15T10:53:52.819Z,9.97
2022-10-15T10:56:57.695Z,12.43
2022-10-15T11:00:04.232Z,8.43
2022-10-15T11:03:23.371Z,9.97
2022-10-15T11:06:46.016Z,8.77
2022-10-15T11:09:56.482Z,7.57
2022-10-15T11:13:12.658Z,9.77
2022-10-15T11:16:26.390Z,7.90
2022-10-15T11:20:12.928Z,6.93
2022-10-15T11:23:16.854Z,6.63
2022-10-15T11:26:41.602Z,6.57
2022-10-15T11:29:59.622Z,4.13
2022-10-15T11:33:16.217Z,5.50
2022-10-15T11:36:46.027Z,4.77
2022-10-15T11:40:02.578Z,4.17
2022-10-15T11:43:14.343Z,3.93
2022-10-15T11:46:24.766Z,4.93
2022-10-15T11:49:37.123Z,3.50
2022-10-15T11:52:53.850Z,2.87
2022-10-15T11:56:01.537Z,3.13
2022-10-15T11:59:15.383Z,2.73
2022-10-15T12:02:22.226Z,2.10
2022-10-15T12:05:31.875Z,4.13
2022-10-15T12:08:40.029Z,4.80
2022-10-15T12:11:49.277Z,2.30
2022-10-15T12:15:05.689Z,2.77
2022-10-15T12:18:18.610Z,2.50
2022-10-15T12:21:37.708Z,1.77
2022-10-15T12:24:57.342Z,2.20
2022-10-15T12:28:01.468Z,1.97
2022-10-15T12:31:06.611Z,2.33
2022-10-15T12:34:27.693Z,1.93
2022-10-15T12:37:35.942Z,3.20
2022-10-15T12:40:40.907Z,3.30
2022-10-15T12:43:47.558Z,2.10
2022-10-15T12:46:51.232Z,2.17
2022-10-15T12:50:04.564Z,3.33
2022-10-15T12:53:28.896Z,2.20
2022-10-15T12:56:40.608Z,3.07
2022-10-15T12:59:56.599Z,2.42
2022-10-15T13:03:22.428Z,3.57
2022-10-15T13:06:35.658Z,2.23
2022-10-15T13:09:38.806Z,2.77
2022-10-15T13:12:43.517Z,2.30
2022-10-15T13:15:56.141Z,3.30
2022-10-15T13:19:00.585Z,3.00
2022-10-15T13:22:06.435Z,4.93
2022-10-15T13:25:16.839Z,3.50
2022-10-15T13:28:36.911Z,3.10
2022-10-15T13:31:44.900Z,3.47
2022-10-15T13:34:48.338Z,4.40
2022-10-15T13:37:51.361Z,4.63
2022-10-15T13:40:55.148Z,3.73
2022-10-15T13:44:01.057Z,3.77
2022-10-15T13:47:04.384Z,3.10
2022-10-15T13:50:18.386Z,4.80
2022-10-15T13:53:29.449Z,3.40
2022-10-15T13:56:33.753Z,2.97
2022-10-15T13:59:38.139Z,4.47
2022-10-15T14:02:41.129Z,4.67
2022-10-15T14:05:44.535Z,5.60
2022-10-15T14:08:48.630Z,4.30
2022-10-15T14:11:51.799Z,5.60
2022-10-15T14:14:56.093Z,5.83
2022-10-15T14:17:59.156Z,4.97
2022-10-15T14:21:02.854Z,5.83
2022-10-15T14:24:08.153Z,5.90
2022-10-15T14:27:16.495Z,5.60
2022-10-15T14:30:28.975Z,6.80
2022-10-15T14:33:44.980Z,6.87
2022-10-15T14:36:47.982Z,7.67
2022-10-15T14:39:50.948Z,5.63
2022-10-15T14:43:03.941Z,8.60
2022-10-15T14:46:16.648Z,8.07
2022-10-15T14:49:26.307Z,7.70
2022-10-15T14:52:34.195Z,8.00
2022-10-15T14:55:42.344Z,8.83
2022-10-15T14:58:52.095Z,7.57
2022-10-15T15:02:02.601Z,7.77
2022-10-15T15:05:18.373Z,8.50
2022-10-15T15:08:22.411Z,8.07
2022-10-15T15:11:26.787Z,7.80
2022-10-15T15:14:29.888Z,8.43
2022-10-15T15:17:34.242Z,8.67
2022-10-15T15:20:37.277Z,7.57
2022-10-15T15:23:40.294Z,9.30
2022-10-15T15:26:43.296Z,8.43
2022-10-15T15:29:48.410Z,9.30
2022-10-15T15:32:55.435Z,9.63
2022-10-15T15:36:03.328Z,9.03
2022-10-15T15:39:06.313Z,9.40
2022-10-15T15:42:14.244Z,8.70
2022-10-15T15:45:21.499Z,8.93
2022-10-15T15:48:25.863Z,8.83
2022-10-15T15:51:32.076Z,8.30
2022-10-15T15:54:35.090Z,8.67
2022-10-15T15:57:38.133Z,8.17
2022-10-15T16:00:41.126Z,7.80
2022-10-15T16:03:45.470Z,7.50
2022-10-15T16:06:48.803Z,10.60
2022-10-15T16:09:51.750Z,8.33
2022-10-15T16:12:56.050Z,11.20
2022-10-15T16:15:59.381Z,8.50
2022-10-15T16:19:03.810Z,10.27
2022-10-15T16:22:06.855Z,9.37
2022-10-15T16:25:10.228Z,10.23
2022-10-15T16:28:13.243Z,11.77
2022-10-15T16:31:17.570Z,9.90
2022-10-15T16:34:21.989Z,8.70
2022-10-15T16:37:25.204Z,10.43
2022-10-15T16:40:28.353Z,9.97
2022-10-15T16:43:31.343Z,7.10
2022-10-15T16:46:34.423Z,7.00
2022-10-15T16:49:38.792Z,7.27
2022-10-15T16:52:41.798Z,7.17
2022-10-15T16:55:44.761Z,8.23
2022-10-15T16:58:48.134Z,7.43
2022-10-15T17:01:51.210Z,6.57
2022-10-15T17:04:55.611Z,7.30
2022-10-15T17:07:58.616Z,6.37
2022-10-15T17:11:01.595Z,6.70
2022-10-15T17:14:06.181Z,5.97
2022-10-15T17:17:09.206Z,7.33
2022-10-15T17:20:13.916Z,5.80
2022-10-15T17:23:17.949Z,7.23
2022-10-15T17:26:23.258Z,7.37
2022-10-15T17:29:29.162Z,5.87
2022-10-15T17:32:36.581Z,4.60
2022-10-15T17:35:41.879Z,5.77
2022-10-15T17:38:45.069Z,6.17
2022-10-15T17:41:48.079Z,5.97
2022-10-15T17:44:51.250Z,5.50
2022-10-15T17:47:54.258Z,5.53
2022-10-15T17:51:00.449Z,5.00
2022-10-15T17:54:03.682Z,5.57
2022-10-15T17:57:06.876Z,5.23
2022-10-15T18:00:11.473Z,6.37
2022-10-15T18:03:14.428Z,5.47
2022-10-15T18:06:20.882Z,5.30
2022-10-15T18:09:24.009Z,5.37
2022-10-15T18:12:26.954Z,5.00
2022-10-15T18:15:29.938Z,4.70
2022-10-15T18:18:33.392Z,6.70
2022-10-15T18:21:37.718Z,5.37
2022-10-15T18:24:40.845Z,6.57
2022-10-15T18:27:43.949Z,5.00
2022-10-15T18:30:46.951Z,5.23
2022-10-15T18:33:52.887Z,5.17
2022-10-15T18:36:57.530Z,4.17
2022-10-15T18:40:00.528Z,5.03
2022-10-15T18:43:04.079Z,4.40
2022-10-15T18:46:07.261Z,4.23
2022-10-15T18:49:10.444Z,4.17
2022-10-15T18:52:21.945Z,3.43
2022-10-15T18:55:38.238Z,3.93
2022-10-15T18:58:42.837Z,3.83
2022-10-15T19:01:45.884Z,3.00
2022-10-15T19:04:48.927Z,4.90
2022-10-15T19:07:55.515Z,3.27
2022-10-15T19:11:04.808Z,3.97
2022-10-15T19:14:08.351Z,3.37
2022-10-15T19:17:12.734Z,2.73
2022-10-15T19:20:15.782Z,4.57
2022-10-15T19:23:20.294Z,3.03
2022-10-15T19:26:23.369Z,2.90
2022-10-15T19:29:27.093Z,3.17
2022-10-15T19:32:32.208Z,3.13
2022-10-15T19:35:39.793Z,2.90
2022-10-15T19:38:44.115Z,3.03
2022-10-15T19:41:47.509Z,2.83
2022-10-15T19:44:50.552Z,4.03
2022-10-15T19:47:53.517Z,2.83
2022-10-15T19:50:56.479Z,3.00
2022-10-15T19:54:00.862Z,3.10
2022-10-15T19:57:03.897Z,4.10
2022-10-15T20:00:08.131Z,3.50
2022-10-15T20:03:11.108Z,3.00
2022-10-15T20:06:14.114Z,4.27
2022-10-15T20:09:18.413Z,3.50
2022-10-15T20:12:21.407Z,4.20
2022-10-15T20:15:24.395Z,3.57
2022-10-15T20:18:27.694Z,3.80
2022-10-15T20:21:30.893Z,3.70
2022-10-15T20:24:35.230Z,3.67
2022-10-15T20:27:38.232Z,3.70
2022-10-15T20:30:41.542Z,4.00
2022-10-15T20:33:45.071Z,4.23
2022-10-15T20:36:52.707Z,4.00
2022-10-15T20:43:04.941Z,3.87
2022-10-15T20:46:10.594Z,3.80
2022-10-15T20:49:20.351Z,4.40
2022-10-15T20:52:24.765Z,3.97
2022-10-15T20:55:29.698Z,4.60
2022-10-15T20:58:32.954Z,4.00
2022-10-15T21:01:37.204Z,4.33
2022-10-15T21:04:40.775Z,4.10
2022-10-15T21:07:43.762Z,4.47
2022-10-15T21:10:48.120Z,4.33
2022-10-15T21:13:51.447Z,4.80
2022-10-15T21:16:54.448Z,4.50
2022-10-15T21:19:57.391Z,4.17
2022-10-15T21:23:00.403Z,4.40
2022-10-15T21:26:09.024Z,4.30
2022-10-15T21:29:16.247Z,4.10
2022-10-15T21:32:19.246Z,4.97
2022-10-15T21:35:22.232Z,4.20
2022-10-15T21:38:25.268Z,4.57
2022-10-15T21:41:31.970Z,4.63
2022-10-15T21:44:34.930Z,4.10
2022-10-15T21:47:37.951Z,4.90
2022-10-15T21:50:40.927Z,4.60
2022-10-15T21:53:44.373Z,4.63
2022-10-15T21:56:48.744Z,5.80
2022-10-15T21:59:51.736Z,4.00
2022-10-15T22:02:54.696Z,3.80
2022-10-15T22:05:59.763Z,3.20
2022-10-15T22:09:03.628Z,3.40
2022-10-15T22:12:08.078Z,3.40
2022-10-15T22:15:11.574Z,3.50
2022-10-15T22:18:14.518Z,3.13
2022-10-15T22:21:19.400Z,3.07
2022-10-15T22:24:22.522Z,3.47
2022-10-15T22:27:27.278Z,3.07
2022-10-15T22:30:30.243Z,2.80
2022-10-15T22:33:34.085Z,4.97
2022-10-15T22:36:37.050Z,3.67
2022-10-15T22:39:40.459Z,3.73
2022-10-15T22:42:46.274Z,3.00
2022-10-15T22:45:49.308Z,3.40
2022-10-15T22:48:53.553Z,3.27
2022-10-15T22:51:56.708Z,3.40
2022-10-15T22:54:59.654Z,3.97
2022-10-15T22:58:03.961Z,3.90
2022-10-15T23:01:09.028Z,4.43
2022-10-15T23:04:13.927Z,3.83
2022-10-15T23:07:16.971Z,6.03
2022-10-15T23:10:19.956Z,4.83
2022-10-15T23:13:24.284Z,5.67
2022-10-15T23:16:29.501Z,4.20
2022-10-15T23:19:32.719Z,7.20
2022-10-15T23:22:35.699Z,5.20
2022-10-15T23:25:39.215Z,7.37
2022-10-15T23:28:44.341Z,4.37
2022-10-15T23:31:48.227Z,5.77
2022-10-15T23:34:51.210Z,4.37
2022-10-15T23:37:54.224Z,4.83
2022-10-15T23:41:01.475Z,3.50
2022-10-15T23:44:05.844Z,4.03
2022-10-15T23:47:08.803Z,4.60
2022-10-15T23:50:11.762Z,4.33
2022-10-15T23:53:14.738Z,3.87
2022-10-15T23:56:18.437Z,4.00
2022-10-15T23:59:22.882Z,7.00
